sensor_id;sensor_type;location;lat;lon;timestamp;temperature;humidity
22065;DHT22;11197;53.110;8.468;2024-03-17T00:00:23;5.80;99.90
22065;DHT22;11197;53.110;8.468;2024-03-17T00:02:49;5.80;99.90
22065;DHT22;11197;53.110;8.468;2024-03-17T00:05:14;5.70;99.90
22065;DHT22;11197;53.110;8.468;2024-03-17T00:07:40;5.70;99.90
22065;DHT22;11197;53.110;8.468;2024-03-17T00:10:07;5.70;99.90
22065;DHT22;11197;53.110;8.468;2024-03-17T00:12:33;5.60;99.90
22065;DHT22;11197;53.110;8.468;2024-03-17T00:14:59;5.60;99.90
22065;DHT22;11197;53.110;8.468;2024-03-17T00:17:25;5.60;99.90
22065;DHT22;11197;53.110;8.468;2024-03-17T00:19:50;5.60;99.90
22065;DHT22;11197;53.110;8.468;2024-03-17T00:22:16;5.50;99.90
22065;DHT22;11197;53.110;8.468;2024-03-17T00:24:45;5.50;99.90
22065;DHT22;11197;53.110;8.468;2024-03-17T00:27:11;5.50;99.90
22065;DHT22;11197;53.110;8.468;2024-03-17T00:29:37;5.50;99.90
22065;DHT22;11197;53.110;8.468;2024-03-17T00:32:04;5.50;99.90
22065;DHT22;11197;53.110;8.468;2024-03-17T00:34:30;5.50;99.90
22065;DHT22;11197;53.110;8.468;2024-03-17T00:36:55;5.50;99.90
22065;DHT22;11197;53.110;8.468;2024-03-17T00:39:21;5.40;99.90
22065;DHT22;11197;53.110;8.468;2024-03-17T00:41:48;5.40;99.90
22065;DHT22;11197;53.110;8.468;2024-03-17T00:44:14;5.40;99.90
22065;DHT22;11197;53.110;8.468;2024-03-17T00:46:40;5.40;99.90
22065;DHT22;11197;53.110;8.468;2024-03-17T00:49:09;5.40;99.90
22065;DHT22;11197;53.110;8.468;2024-03-17T00:51:35;5.40;99.90
22065;DHT22;11197;53.110;8.468;2024-03-17T00:54:01;5.40;99.90
22065;DHT22;11197;53.110;8.468;2024-03-17T00:56:27;5.40;99.90
22065;DHT22;11197;53.110;8.468;2024-03-17T00:58:53;5.40;99.90
22065;DHT22;11197;53.110;8.468;2024-03-17T01:01:19;5.40;99.90
22065;DHT22;11197;53.110;8.468;2024-03-17T01:03:45;5.40;99.90
22065;DHT22;11197;53.110;8.468;2024-03-17T01:06:11;5.30;99.90
22065;DHT22;11197;53.110;8.468;2024-03-17T01:08:37;5.30;99.90
22065;DHT22;11197;53.110;8.468;2024-03-17T01:11:02;5.30;99.90
22065;DHT22;11197;53.110;8.468;2024-03-17T01:13:28;5.30;99.90
22065;DHT22;11197;53.110;8.468;2024-03-17T01:15:54;5.30;99.90
22065;DHT22;11197;53.110;8.468;2024-03-17T01:18:20;5.30;99.90
22065;DHT22;11197;53.110;8.468;2024-03-17T01:20:45;5.30;99.90
22065;DHT22;11197;53.110;8.468;2024-03-17T01:23:11;5.30;99.90
22065;DHT22;11197;53.110;8.468;2024-03-17T01:25:37;5.30;99.90
22065;DHT22;11197;53.110;8.468;2024-03-17T01:28:04;5.30;99.90
22065;DHT22;11197;53.110;8.468;2024-03-17T01:30:30;5.20;99.90
22065;DHT22;11197;53.110;8.468;2024-03-17T01:32:56;5.20;99.90
22065;DHT22;11197;53.110;8.468;2024-03-17T01:35:21;5.20;99.90
22065;DHT22;11197;53.110;8.468;2024-03-17T01:37:48;5.20;99.90
22065;DHT22;11197;53.110;8.468;2024-03-17T01:40:14;5.10;99.90
22065;DHT22;11197;53.110;8.468;2024-03-17T01:42:41;5.20;99.90
22065;DHT22;11197;53.110;8.468;2024-03-17T01:45:26;5.10;99.90
22065;DHT22;11197;53.110;8.468;2024-03-17T01:47:54;5.10;99.90
22065;DHT22;11197;53.110;8.468;2024-03-17T01:50:20;5.10;99.90
22065;DHT22;11197;53.110;8.468;2024-03-17T01:52:55;5.10;99.90
22065;DHT22;11197;53.110;8.468;2024-03-17T01:55:22;5.10;99.90
22065;DHT22;11197;53.110;8.468;2024-03-17T01:57:49;5.10;99.90
22065;DHT22;11197;53.110;8.468;2024-03-17T02:00:15;5.10;99.90
22065;DHT22;11197;53.110;8.468;2024-03-17T02:02:41;5.00;99.90
22065;DHT22;11197;53.110;8.468;2024-03-17T02:05:07;5.10;99.90
22065;DHT22;11197;53.110;8.468;2024-03-17T02:07:32;5.00;99.90
22065;DHT22;11197;53.110;8.468;2024-03-17T02:09:58;5.00;99.90
22065;DHT22;11197;53.110;8.468;2024-03-17T02:12:24;5.00;99.90
22065;DHT22;11197;53.110;8.468;2024-03-17T02:14:51;5.00;99.90
22065;DHT22;11197;53.110;8.468;2024-03-17T02:17:16;4.90;99.90
22065;DHT22;11197;53.110;8.468;2024-03-17T02:19:42;4.90;99.90
22065;DHT22;11197;53.110;8.468;2024-03-17T02:22:14;4.90;99.90
22065;DHT22;11197;53.110;8.468;2024-03-17T02:24:40;4.90;99.90
22065;DHT22;11197;53.110;8.468;2024-03-17T02:27:06;5.00;99.90
22065;DHT22;11197;53.110;8.468;2024-03-17T02:29:32;4.90;99.90
22065;DHT22;11197;53.110;8.468;2024-03-17T02:31:57;4.90;99.90
22065;DHT22;11197;53.110;8.468;2024-03-17T02:34:23;4.90;99.90
22065;DHT22;11197;53.110;8.468;2024-03-17T02:36:49;4.90;99.90
22065;DHT22;11197;53.110;8.468;2024-03-17T02:39:14;4.80;99.90
22065;DHT22;11197;53.110;8.468;2024-03-17T02:42:03;4.80;99.90
22065;DHT22;11197;53.110;8.468;2024-03-17T02:44:30;4.90;99.90
22065;DHT22;11197;53.110;8.468;2024-03-17T02:46:59;4.90;99.90
22065;DHT22;11197;53.110;8.468;2024-03-17T02:49:28;4.90;99.90
22065;DHT22;11197;53.110;8.468;2024-03-17T02:52:03;4.90;99.90
22065;DHT22;11197;53.110;8.468;2024-03-17T02:54:30;4.80;99.90
22065;DHT22;11197;53.110;8.468;2024-03-17T02:56:56;4.80;99.90
22065;DHT22;11197;53.110;8.468;2024-03-17T02:59:21;4.80;99.90
22065;DHT22;11197;53.110;8.468;2024-03-17T03:01:47;4.80;99.90
22065;DHT22;11197;53.110;8.468;2024-03-17T03:04:12;4.80;99.90
22065;DHT22;11197;53.110;8.468;2024-03-17T03:06:38;4.80;99.90
22065;DHT22;11197;53.110;8.468;2024-03-17T03:09:04;4.80;99.90
22065;DHT22;11197;53.110;8.468;2024-03-17T03:11:42;4.80;99.90
22065;DHT22;11197;53.110;8.468;2024-03-17T03:14:08;4.80;99.90
22065;DHT22;11197;53.110;8.468;2024-03-17T03:16:34;4.80;99.90
22065;DHT22;11197;53.110;8.468;2024-03-17T03:18:59;4.70;99.90
22065;DHT22;11197;53.110;8.468;2024-03-17T03:21:25;4.70;99.90
22065;DHT22;11197;53.110;8.468;2024-03-17T03:23:51;4.70;99.90
22065;DHT22;11197;53.110;8.468;2024-03-17T03:26:17;4.70;99.90
22065;DHT22;11197;53.110;8.468;2024-03-17T03:28:43;4.70;99.90
22065;DHT22;11197;53.110;8.468;2024-03-17T03:31:13;4.70;99.90
22065;DHT22;11197;53.110;8.468;2024-03-17T03:33:42;4.70;99.90
22065;DHT22;11197;53.110;8.468;2024-03-17T03:36:12;4.70;99.90
22065;DHT22;11197;53.110;8.468;2024-03-17T03:38:38;4.60;99.90
22065;DHT22;11197;53.110;8.468;2024-03-17T03:41:14;4.60;99.90
22065;DHT22;11197;53.110;8.468;2024-03-17T03:43:40;4.60;99.90
22065;DHT22;11197;53.110;8.468;2024-03-17T03:46:09;4.60;99.90
22065;DHT22;11197;53.110;8.468;2024-03-17T03:48:35;4.60;99.90
22065;DHT22;11197;53.110;8.468;2024-03-17T03:51:05;4.50;99.90
22065;DHT22;11197;53.110;8.468;2024-03-17T03:53:32;4.50;99.90
22065;DHT22;11197;53.110;8.468;2024-03-17T03:55:57;4.50;99.90
22065;DHT22;11197;53.110;8.468;2024-03-17T03:58:24;4.50;99.90
22065;DHT22;11197;53.110;8.468;2024-03-17T04:00:51;4.50;99.90
22065;DHT22;11197;53.110;8.468;2024-03-17T04:03:16;4.50;99.90
22065;DHT22;11197;53.110;8.468;2024-03-17T04:05:42;4.50;99.90
22065;DHT22;11197;53.110;8.468;2024-03-17T04:08:08;4.50;99.90
22065;DHT22;11197;53.110;8.468;2024-03-17T04:10:34;4.50;99.90
22065;DHT22;11197;53.110;8.468;2024-03-17T04:13:00;4.40;99.90
22065;DHT22;11197;53.110;8.468;2024-03-17T04:15:26;4.50;99.90
22065;DHT22;11197;53.110;8.468;2024-03-17T04:17:52;4.50;99.90
22065;DHT22;11197;53.110;8.468;2024-03-17T04:20:18;4.40;99.90
22065;DHT22;11197;53.110;8.468;2024-03-17T04:22:43;4.50;99.90
22065;DHT22;11197;53.110;8.468;2024-03-17T04:25:10;4.40;99.90
22065;DHT22;11197;53.110;8.468;2024-03-17T04:27:36;4.50;99.90
22065;DHT22;11197;53.110;8.468;2024-03-17T04:30:02;4.40;99.90
22065;DHT22;11197;53.110;8.468;2024-03-17T04:32:31;4.40;99.90
22065;DHT22;11197;53.110;8.468;2024-03-17T04:34:57;4.40;99.90
22065;DHT22;11197;53.110;8.468;2024-03-17T04:37:23;4.40;99.90
22065;DHT22;11197;53.110;8.468;2024-03-17T04:39:50;4.40;99.90
22065;DHT22;11197;53.110;8.468;2024-03-17T04:42:17;4.30;99.90
22065;DHT22;11197;53.110;8.468;2024-03-17T04:44:46;4.30;99.90
22065;DHT22;11197;53.110;8.468;2024-03-17T04:47:12;4.30;99.90
22065;DHT22;11197;53.110;8.468;2024-03-17T04:49:43;4.30;99.90
22065;DHT22;11197;53.110;8.468;2024-03-17T04:52:10;4.30;99.90
22065;DHT22;11197;53.110;8.468;2024-03-17T04:54:36;4.30;99.90
22065;DHT22;11197;53.110;8.468;2024-03-17T04:57:02;4.30;99.90
22065;DHT22;11197;53.110;8.468;2024-03-17T04:59:28;4.30;99.90
22065;DHT22;11197;53.110;8.468;2024-03-17T05:01:54;4.30;99.90
22065;DHT22;11197;53.110;8.468;2024-03-17T05:04:20;4.30;99.90
22065;DHT22;11197;53.110;8.468;2024-03-17T05:06:46;4.20;99.90
22065;DHT22;11197;53.110;8.468;2024-03-17T05:09:16;4.20;99.90
22065;DHT22;11197;53.110;8.468;2024-03-17T05:11:42;4.20;99.90
22065;DHT22;11197;53.110;8.468;2024-03-17T05:14:07;4.20;99.90
22065;DHT22;11197;53.110;8.468;2024-03-17T05:16:33;4.20;99.90
22065;DHT22;11197;53.110;8.468;2024-03-17T05:18:59;4.20;99.90
22065;DHT22;11197;53.110;8.468;2024-03-17T05:21:25;4.20;99.90
22065;DHT22;11197;53.110;8.468;2024-03-17T05:23:52;4.20;99.90
22065;DHT22;11197;53.110;8.468;2024-03-17T05:26:17;4.10;99.90
22065;DHT22;11197;53.110;8.468;2024-03-17T05:28:44;4.10;99.90
22065;DHT22;11197;53.110;8.468;2024-03-17T05:31:12;4.10;99.90
22065;DHT22;11197;53.110;8.468;2024-03-17T05:33:40;4.10;99.90
22065;DHT22;11197;53.110;8.468;2024-03-17T05:36:06;4.10;99.90
22065;DHT22;11197;53.110;8.468;2024-03-17T05:38:32;4.10;99.90
22065;DHT22;11197;53.110;8.468;2024-03-17T05:41:02;4.10;99.90
22065;DHT22;11197;53.110;8.468;2024-03-17T05:43:29;4.00;99.90
22065;DHT22;11197;53.110;8.468;2024-03-17T05:46:00;4.10;99.90
22065;DHT22;11197;53.110;8.468;2024-03-17T05:48:29;4.00;99.90
22065;DHT22;11197;53.110;8.468;2024-03-17T05:50:55;4.00;99.90
22065;DHT22;11197;53.110;8.468;2024-03-17T05:53:22;4.00;99.90
22065;DHT22;11197;53.110;8.468;2024-03-17T05:55:51;4.00;99.90
22065;DHT22;11197;53.110;8.468;2024-03-17T05:58:17;4.00;99.90
22065;DHT22;11197;53.110;8.468;2024-03-17T06:00:43;4.00;99.90
22065;DHT22;11197;53.110;8.468;2024-03-17T06:03:09;4.00;99.90
22065;DHT22;11197;53.110;8.468;2024-03-17T06:05:39;4.00;99.90
22065;DHT22;11197;53.110;8.468;2024-03-17T06:08:08;4.00;99.90
22065;DHT22;11197;53.110;8.468;2024-03-17T06:10:36;3.90;99.90
22065;DHT22;11197;53.110;8.468;2024-03-17T06:13:02;3.90;99.90
22065;DHT22;11197;53.110;8.468;2024-03-17T06:15:28;3.90;99.90
22065;DHT22;11197;53.110;8.468;2024-03-17T06:17:54;3.90;99.90
22065;DHT22;11197;53.110;8.468;2024-03-17T06:20:21;3.90;99.90
22065;DHT22;11197;53.110;8.468;2024-03-17T06:22:47;3.90;99.90
22065;DHT22;11197;53.110;8.468;2024-03-17T06:25:13;3.90;99.90
22065;DHT22;11197;53.110;8.468;2024-03-17T06:27:39;3.90;99.90
22065;DHT22;11197;53.110;8.468;2024-03-17T06:30:05;3.90;99.90
22065;DHT22;11197;53.110;8.468;2024-03-17T06:32:32;3.90;99.90
22065;DHT22;11197;53.110;8.468;2024-03-17T06:34:59;3.90;99.90
22065;DHT22;11197;53.110;8.468;2024-03-17T06:37:24;3.90;99.90
22065;DHT22;11197;53.110;8.468;2024-03-17T06:39:50;3.90;99.90
22065;DHT22;11197;53.110;8.468;2024-03-17T06:42:16;3.90;99.90
22065;DHT22;11197;53.110;8.468;2024-03-17T06:44:41;3.90;99.90
22065;DHT22;11197;53.110;8.468;2024-03-17T06:47:07;3.80;99.90
22065;DHT22;11197;53.110;8.468;2024-03-17T06:49:33;3.80;99.90
22065;DHT22;11197;53.110;8.468;2024-03-17T06:51:58;3.90;99.90
22065;DHT22;11197;53.110;8.468;2024-03-17T06:54:24;3.80;99.90
22065;DHT22;11197;53.110;8.468;2024-03-17T06:56:50;3.90;99.90
22065;DHT22;11197;53.110;8.468;2024-03-17T06:59:17;3.90;99.90
22065;DHT22;11197;53.110;8.468;2024-03-17T07:01:43;3.90;99.90
22065;DHT22;11197;53.110;8.468;2024-03-17T07:04:10;3.90;99.90
22065;DHT22;11197;53.110;8.468;2024-03-17T07:06:36;3.90;99.90
22065;DHT22;11197;53.110;8.468;2024-03-17T07:09:02;3.90;99.90
22065;DHT22;11197;53.110;8.468;2024-03-17T07:11:28;3.90;99.90
22065;DHT22;11197;53.110;8.468;2024-03-17T07:13:53;3.90;99.90
22065;DHT22;11197;53.110;8.468;2024-03-17T07:16:19;4.00;99.90
22065;DHT22;11197;53.110;8.468;2024-03-17T07:18:47;4.00;99.90
22065;DHT22;11197;53.110;8.468;2024-03-17T07:21:14;4.10;99.90
22065;DHT22;11197;53.110;8.468;2024-03-17T07:23:39;4.10;99.90
22065;DHT22;11197;53.110;8.468;2024-03-17T07:26:05;4.20;99.90
22065;DHT22;11197;53.110;8.468;2024-03-17T07:28:31;4.30;99.90
22065;DHT22;11197;53.110;8.468;2024-03-17T07:30:59;4.30;99.90
22065;DHT22;11197;53.110;8.468;2024-03-17T07:33:26;4.40;99.90
22065;DHT22;11197;53.110;8.468;2024-03-17T07:35:53;4.50;99.90
22065;DHT22;11197;53.110;8.468;2024-03-17T07:38:20;4.60;99.90
22065;DHT22;11197;53.110;8.468;2024-03-17T07:41:01;4.60;99.90
22065;DHT22;11197;53.110;8.468;2024-03-17T07:43:28;4.70;99.90
22065;DHT22;11197;53.110;8.468;2024-03-17T07:46:02;4.80;99.90
22065;DHT22;11197;53.110;8.468;2024-03-17T07:48:30;4.90;99.90
22065;DHT22;11197;53.110;8.468;2024-03-17T07:51:04;5.00;99.90
22065;DHT22;11197;53.110;8.468;2024-03-17T07:53:34;5.00;99.90
22065;DHT22;11197;53.110;8.468;2024-03-17T07:56:05;5.10;99.90
22065;DHT22;11197;53.110;8.468;2024-03-17T07:58:32;5.20;99.90
22065;DHT22;11197;53.110;8.468;2024-03-17T08:01:03;5.30;99.90
22065;DHT22;11197;53.110;8.468;2024-03-17T08:03:30;5.40;99.90
22065;DHT22;11197;53.110;8.468;2024-03-17T08:05:57;5.50;99.90
22065;DHT22;11197;53.110;8.468;2024-03-17T08:08:23;5.60;99.90
22065;DHT22;11197;53.110;8.468;2024-03-17T08:10:49;5.70;99.90
22065;DHT22;11197;53.110;8.468;2024-03-17T08:13:16;5.80;99.90
22065;DHT22;11197;53.110;8.468;2024-03-17T08:15:42;5.90;99.90
22065;DHT22;11197;53.110;8.468;2024-03-17T08:18:11;5.90;99.90
22065;DHT22;11197;53.110;8.468;2024-03-17T08:20:42;6.00;99.90
22065;DHT22;11197;53.110;8.468;2024-03-17T08:23:09;6.10;99.90
22065;DHT22;11197;53.110;8.468;2024-03-17T08:25:36;6.20;99.90
22065;DHT22;11197;53.110;8.468;2024-03-17T08:28:02;6.30;99.90
22065;DHT22;11197;53.110;8.468;2024-03-17T08:30:29;6.30;99.90
22065;DHT22;11197;53.110;8.468;2024-03-17T08:32:56;6.40;99.90
22065;DHT22;11197;53.110;8.468;2024-03-17T08:35:22;6.40;99.90
22065;DHT22;11197;53.110;8.468;2024-03-17T08:37:48;6.40;99.90
22065;DHT22;11197;53.110;8.468;2024-03-17T08:40:13;6.50;99.90
22065;DHT22;11197;53.110;8.468;2024-03-17T08:42:39;6.60;99.90
22065;DHT22;11197;53.110;8.468;2024-03-17T08:45:06;6.60;99.90
22065;DHT22;11197;53.110;8.468;2024-03-17T08:47:32;6.60;99.90
22065;DHT22;11197;53.110;8.468;2024-03-17T08:49:58;6.60;99.90
22065;DHT22;11197;53.110;8.468;2024-03-17T08:52:29;6.60;99.90
22065;DHT22;11197;53.110;8.468;2024-03-17T08:54:57;6.70;99.90
22065;DHT22;11197;53.110;8.468;2024-03-17T08:57:23;6.70;99.90
22065;DHT22;11197;53.110;8.468;2024-03-17T08:59:49;6.80;99.90
22065;DHT22;11197;53.110;8.468;2024-03-17T09:02:17;6.80;99.90
22065;DHT22;11197;53.110;8.468;2024-03-17T09:04:43;6.90;99.90
22065;DHT22;11197;53.110;8.468;2024-03-17T09:07:08;6.90;99.90
22065;DHT22;11197;53.110;8.468;2024-03-17T09:09:34;6.90;99.90
22065;DHT22;11197;53.110;8.468;2024-03-17T09:12:00;7.00;99.90
22065;DHT22;11197;53.110;8.468;2024-03-17T09:14:25;7.00;99.90
22065;DHT22;11197;53.110;8.468;2024-03-17T09:16:51;7.00;99.90
22065;DHT22;11197;53.110;8.468;2024-03-17T09:19:17;7.10;99.90
22065;DHT22;11197;53.110;8.468;2024-03-17T09:21:42;7.10;99.90
22065;DHT22;11197;53.110;8.468;2024-03-17T09:24:08;7.20;99.90
22065;DHT22;11197;53.110;8.468;2024-03-17T09:26:34;7.20;99.90
22065;DHT22;11197;53.110;8.468;2024-03-17T09:29:01;7.20;99.90
22065;DHT22;11197;53.110;8.468;2024-03-17T09:31:27;7.20;99.90
22065;DHT22;11197;53.110;8.468;2024-03-17T09:33:53;7.30;99.90
22065;DHT22;11197;53.110;8.468;2024-03-17T09:36:19;7.30;99.90
22065;DHT22;11197;53.110;8.468;2024-03-17T09:38:45;7.30;99.90
22065;DHT22;11197;53.110;8.468;2024-03-17T09:41:24;7.40;99.90
22065;DHT22;11197;53.110;8.468;2024-03-17T09:43:56;7.40;99.90
22065;DHT22;11197;53.110;8.468;2024-03-17T09:46:26;7.40;99.90
22065;DHT22;11197;53.110;8.468;2024-03-17T09:48:53;7.50;99.90
22065;DHT22;11197;53.110;8.468;2024-03-17T09:51:21;7.60;99.90
22065;DHT22;11197;53.110;8.468;2024-03-17T09:53:47;7.60;99.90
22065;DHT22;11197;53.110;8.468;2024-03-17T09:56:17;7.60;99.90
22065;DHT22;11197;53.110;8.468;2024-03-17T09:58:47;7.60;99.90
22065;DHT22;11197;53.110;8.468;2024-03-17T10:01:13;7.70;99.90
22065;DHT22;11197;53.110;8.468;2024-03-17T10:03:46;7.80;99.90
22065;DHT22;11197;53.110;8.468;2024-03-17T10:06:18;7.80;99.90
22065;DHT22;11197;53.110;8.468;2024-03-17T10:08:48;7.90;99.90
22065;DHT22;11197;53.110;8.468;2024-03-17T10:11:19;7.90;99.90
22065;DHT22;11197;53.110;8.468;2024-03-17T10:13:46;7.90;99.90
22065;DHT22;11197;53.110;8.468;2024-03-17T10:16:24;8.00;99.90
22065;DHT22;11197;53.110;8.468;2024-03-17T10:18:50;8.00;99.90
22065;DHT22;11197;53.110;8.468;2024-03-17T10:21:25;8.00;99.90
22065;DHT22;11197;53.110;8.468;2024-03-17T10:24:09;8.00;99.90
22065;DHT22;11197;53.110;8.468;2024-03-17T10:26:42;8.10;99.90
22065;DHT22;11197;53.110;8.468;2024-03-17T10:34:38;8.20;99.90
22065;DHT22;11197;53.110;8.468;2024-03-17T10:39:36;8.30;99.90
22065;DHT22;11197;53.110;8.468;2024-03-17T10:42:07;8.40;99.90
22065;DHT22;11197;53.110;8.468;2024-03-17T10:44:40;8.40;99.90
22065;DHT22;11197;53.110;8.468;2024-03-17T10:47:07;8.40;99.90
22065;DHT22;11197;53.110;8.468;2024-03-17T10:49:39;8.50;99.90
22065;DHT22;11197;53.110;8.468;2024-03-17T10:52:07;8.60;99.90
22065;DHT22;11197;53.110;8.468;2024-03-17T10:54:34;8.60;99.90
22065;DHT22;11197;53.110;8.468;2024-03-17T11:00:02;8.60;99.90
22065;DHT22;11197;53.110;8.468;2024-03-17T11:02:34;8.70;99.90
22065;DHT22;11197;53.110;8.468;2024-03-17T11:05:05;8.80;99.90
22065;DHT22;11197;53.110;8.468;2024-03-17T11:07:32;8.80;99.90
22065;DHT22;11197;53.110;8.468;2024-03-17T11:09:59;8.80;99.90
22065;DHT22;11197;53.110;8.468;2024-03-17T11:17:46;9.00;99.90
22065;DHT22;11197;53.110;8.468;2024-03-17T11:20:15;9.00;99.90
22065;DHT22;11197;53.110;8.468;2024-03-17T11:22:51;9.00;99.90
22065;DHT22;11197;53.110;8.468;2024-03-17T11:28:08;9.20;99.90
22065;DHT22;11197;53.110;8.468;2024-03-17T11:30:42;9.20;99.90
22065;DHT22;11197;53.110;8.468;2024-03-17T11:41:40;9.40;99.90
22065;DHT22;11197;53.110;8.468;2024-03-17T11:47:04;9.40;99.90
22065;DHT22;11197;53.110;8.468;2024-03-17T11:49:34;9.40;99.90
22065;DHT22;11197;53.110;8.468;2024-03-17T11:54:32;9.50;99.90
22065;DHT22;11197;53.110;8.468;2024-03-17T11:57:02;9.50;99.90
22065;DHT22;11197;53.110;8.468;2024-03-17T11:59:29;9.60;99.90
22065;DHT22;11197;53.110;8.468;2024-03-17T12:01:55;9.60;99.90
22065;DHT22;11197;53.110;8.468;2024-03-17T12:04:23;9.70;99.90
22065;DHT22;11197;53.110;8.468;2024-03-17T12:06:50;9.70;99.90
22065;DHT22;11197;53.110;8.468;2024-03-17T12:09:29;9.70;99.90
22065;DHT22;11197;53.110;8.468;2024-03-17T12:12:05;9.70;99.90
22065;DHT22;11197;53.110;8.468;2024-03-17T12:14:38;9.80;99.90
22065;DHT22;11197;53.110;8.468;2024-03-17T12:17:06;9.80;99.90
22065;DHT22;11197;53.110;8.468;2024-03-17T12:19:33;9.90;99.90
22065;DHT22;11197;53.110;8.468;2024-03-17T12:21:59;10.00;99.90
22065;DHT22;11197;53.110;8.468;2024-03-17T12:24:27;10.10;99.90
22065;DHT22;11197;53.110;8.468;2024-03-17T12:26:54;10.20;99.90
22065;DHT22;11197;53.110;8.468;2024-03-17T12:29:35;10.30;99.90
22065;DHT22;11197;53.110;8.468;2024-03-17T12:32:26;10.30;99.90
22065;DHT22;11197;53.110;8.468;2024-03-17T12:34:55;10.40;99.90
22065;DHT22;11197;53.110;8.468;2024-03-17T12:37:27;10.40;99.90
22065;DHT22;11197;53.110;8.468;2024-03-17T12:39:59;10.50;99.90
22065;DHT22;11197;53.110;8.468;2024-03-17T12:42:26;10.50;99.90
22065;DHT22;11197;53.110;8.468;2024-03-17T12:44:54;10.60;99.90
22065;DHT22;11197;53.110;8.468;2024-03-17T12:47:27;10.60;99.90
22065;DHT22;11197;53.110;8.468;2024-03-17T12:49:57;10.70;99.90
22065;DHT22;11197;53.110;8.468;2024-03-17T12:52:27;10.70;99.90
22065;DHT22;11197;53.110;8.468;2024-03-17T12:57:42;10.80;99.90
22065;DHT22;11197;53.110;8.468;2024-03-17T13:00:26;10.80;99.90
22065;DHT22;11197;53.110;8.468;2024-03-17T13:03:03;10.80;99.90
22065;DHT22;11197;53.110;8.468;2024-03-17T13:05:30;10.80;99.90
22065;DHT22;11197;53.110;8.468;2024-03-17T13:07:57;10.80;99.90
22065;DHT22;11197;53.110;8.468;2024-03-17T13:10:26;10.80;99.90
22065;DHT22;11197;53.110;8.468;2024-03-17T13:13:07;10.70;99.90
22065;DHT22;11197;53.110;8.468;2024-03-17T13:15:33;10.70;99.90
22065;DHT22;11197;53.110;8.468;2024-03-17T13:18:03;10.70;99.90
22065;DHT22;11197;53.110;8.468;2024-03-17T13:20:30;10.70;99.90
22065;DHT22;11197;53.110;8.468;2024-03-17T13:22:56;10.80;99.90
22065;DHT22;11197;53.110;8.468;2024-03-17T13:25:29;10.70;99.90
22065;DHT22;11197;53.110;8.468;2024-03-17T13:28:00;10.80;99.90
22065;DHT22;11197;53.110;8.468;2024-03-17T13:30:26;10.70;99.90
22065;DHT22;11197;53.110;8.468;2024-03-17T13:32:54;10.80;99.90
22065;DHT22;11197;53.110;8.468;2024-03-17T13:35:25;10.80;99.90
22065;DHT22;11197;53.110;8.468;2024-03-17T13:37:52;10.80;99.90
22065;DHT22;11197;53.110;8.468;2024-03-17T13:40:20;10.90;99.90
22065;DHT22;11197;53.110;8.468;2024-03-17T13:42:47;10.80;99.90
22065;DHT22;11197;53.110;8.468;2024-03-17T13:45:13;10.90;99.90
22065;DHT22;11197;53.110;8.468;2024-03-17T13:47:40;10.90;99.90
22065;DHT22;11197;53.110;8.468;2024-03-17T13:50:07;10.90;99.90
22065;DHT22;11197;53.110;8.468;2024-03-17T13:52:37;11.00;99.90
22065;DHT22;11197;53.110;8.468;2024-03-17T13:55:04;11.00;99.90
22065;DHT22;11197;53.110;8.468;2024-03-17T13:57:33;11.00;99.90
22065;DHT22;11197;53.110;8.468;2024-03-17T13:59:59;11.00;99.90
22065;DHT22;11197;53.110;8.468;2024-03-17T14:02:25;11.00;99.90
22065;DHT22;11197;53.110;8.468;2024-03-17T14:04:50;11.00;99.90
22065;DHT22;11197;53.110;8.468;2024-03-17T14:07:16;11.00;99.90
22065;DHT22;11197;53.110;8.468;2024-03-17T14:09:42;11.10;99.90
22065;DHT22;11197;53.110;8.468;2024-03-17T14:12:08;11.00;99.90
22065;DHT22;11197;53.110;8.468;2024-03-17T14:14:34;11.10;99.90
22065;DHT22;11197;53.110;8.468;2024-03-17T14:16:59;11.10;99.90
22065;DHT22;11197;53.110;8.468;2024-03-17T14:19:26;11.00;99.90
22065;DHT22;11197;53.110;8.468;2024-03-17T14:21:52;11.00;99.90
22065;DHT22;11197;53.110;8.468;2024-03-17T14:24:18;11.00;99.90
22065;DHT22;11197;53.110;8.468;2024-03-17T14:26:43;11.10;99.90
22065;DHT22;11197;53.110;8.468;2024-03-17T14:29:09;11.00;99.90
22065;DHT22;11197;53.110;8.468;2024-03-17T14:31:35;11.00;99.90
22065;DHT22;11197;53.110;8.468;2024-03-17T14:34:05;11.00;99.90
22065;DHT22;11197;53.110;8.468;2024-03-17T14:36:31;11.10;99.90
22065;DHT22;11197;53.110;8.468;2024-03-17T14:38:59;11.00;99.90
22065;DHT22;11197;53.110;8.468;2024-03-17T14:41:27;11.10;99.90
22065;DHT22;11197;53.110;8.468;2024-03-17T14:43:52;11.10;99.90
22065;DHT22;11197;53.110;8.468;2024-03-17T14:46:18;11.20;99.90
22065;DHT22;11197;53.110;8.468;2024-03-17T14:48:43;11.20;99.90
22065;DHT22;11197;53.110;8.468;2024-03-17T14:51:10;11.20;99.90
22065;DHT22;11197;53.110;8.468;2024-03-17T14:53:36;11.20;99.90
22065;DHT22;11197;53.110;8.468;2024-03-17T14:56:08;11.20;99.90
22065;DHT22;11197;53.110;8.468;2024-03-17T14:58:34;11.10;99.90
22065;DHT22;11197;53.110;8.468;2024-03-17T15:01:00;11.10;99.90
22065;DHT22;11197;53.110;8.468;2024-03-17T15:03:25;11.10;99.90
22065;DHT22;11197;53.110;8.468;2024-03-17T15:05:51;11.10;99.90
22065;DHT22;11197;53.110;8.468;2024-03-17T15:08:17;11.00;99.90
22065;DHT22;11197;53.110;8.468;2024-03-17T15:10:44;11.00;99.90
22065;DHT22;11197;53.110;8.468;2024-03-17T15:13:10;11.00;99.90
22065;DHT22;11197;53.110;8.468;2024-03-17T15:15:36;11.00;99.90
22065;DHT22;11197;53.110;8.468;2024-03-17T15:18:03;11.00;99.90
22065;DHT22;11197;53.110;8.468;2024-03-17T15:20:29;11.00;99.90
22065;DHT22;11197;53.110;8.468;2024-03-17T15:22:55;11.00;99.90
22065;DHT22;11197;53.110;8.468;2024-03-17T15:25:20;11.00;99.90
22065;DHT22;11197;53.110;8.468;2024-03-17T15:27:49;11.00;99.90
22065;DHT22;11197;53.110;8.468;2024-03-17T15:30:16;11.00;99.90
22065;DHT22;11197;53.110;8.468;2024-03-17T15:32:49;11.10;99.90
22065;DHT22;11197;53.110;8.468;2024-03-17T15:35:16;11.10;99.90
22065;DHT22;11197;53.110;8.468;2024-03-17T15:37:42;11.00;99.90
22065;DHT22;11197;53.110;8.468;2024-03-17T15:40:08;11.00;99.90
22065;DHT22;11197;53.110;8.468;2024-03-17T15:42:45;11.00;99.90
22065;DHT22;11197;53.110;8.468;2024-03-17T15:45:12;11.00;99.90
22065;DHT22;11197;53.110;8.468;2024-03-17T15:47:38;11.00;99.90
22065;DHT22;11197;53.110;8.468;2024-03-17T15:50:04;11.00;99.90
22065;DHT22;11197;53.110;8.468;2024-03-17T15:52:30;11.00;99.90
22065;DHT22;11197;53.110;8.468;2024-03-17T15:54:56;10.90;99.90
22065;DHT22;11197;53.110;8.468;2024-03-17T15:57:22;11.00;99.90
22065;DHT22;11197;53.110;8.468;2024-03-17T15:59:51;11.00;99.90
22065;DHT22;11197;53.110;8.468;2024-03-17T16:02:19;11.00;99.90
22065;DHT22;11197;53.110;8.468;2024-03-17T16:04:46;10.90;99.90
22065;DHT22;11197;53.110;8.468;2024-03-17T16:07:12;10.90;99.90
22065;DHT22;11197;53.110;8.468;2024-03-17T16:09:38;10.90;99.90
22065;DHT22;11197;53.110;8.468;2024-03-17T16:12:04;10.90;99.90
22065;DHT22;11197;53.110;8.468;2024-03-17T16:14:33;10.90;99.90
22065;DHT22;11197;53.110;8.468;2024-03-17T16:17:00;10.90;99.90
22065;DHT22;11197;53.110;8.468;2024-03-17T16:19:27;10.90;99.90